Merriam Woods Village, Missouri
Current Conditions -  °F | °C
As of 12:15 PM on Wednesday 26 Nov 2014 (Local Time) from KFWB Reporting Station
Broken Clouds Broken Clouds  
Wind Chill: 40°   Ceiling: 5500
Heat Index: 46°   Visibility: 10mi
Dew Point: 30°   Wind: 16mph
Humidity: 53%   Direction: 270°W
Pressure: 30"   Gusts: 25mph
Location:  36.7156°N, 93.1751°W
Report Text: KFWB 261815Z AUTO 27014G22KT 10SM SCT044 BKN055 BKN065 08/M01 A3000 RMK AO2
Loading
Personal Weather Stations






























Interactive Weather Map New forecast layout! Learn more

10-Day Weather Forecast

Advertisements
Track Severe Weather on mobile